sensor_id;sensor_type;location;lat;lon;timestamp;temperature;humidity
6054;DHT22;3055;50.886;14.814;2022-12-18T00:02:14;-2.40;15.30
6054;DHT22;3055;50.886;14.814;2022-12-18T00:04:41;-2.50;21.70
6054;DHT22;3055;50.886;14.814;2022-12-18T00:07:09;-2.50;30.50
6054;DHT22;3055;50.886;14.814;2022-12-18T00:09:36;-2.50;30.00
6054;DHT22;3055;50.886;14.814;2022-12-18T00:12:04;-2.60;24.00
6054;DHT22;3055;50.886;14.814;2022-12-18T00:14:31;-2.50;29.30
6054;DHT22;3055;50.886;14.814;2022-12-18T00:16:58;-2.40;22.80
6054;DHT22;3055;50.886;14.814;2022-12-18T00:19:26;-2.40;16.00
6054;DHT22;3055;50.886;14.814;2022-12-18T00:21:54;-2.50;1.00
6054;DHT22;3055;50.886;14.814;2022-12-18T00:24:22;-2.50;11.70
6054;DHT22;3055;50.886;14.814;2022-12-18T00:26:49;-2.40;1.00
6054;DHT22;3055;50.886;14.814;2022-12-18T00:29:16;-2.50;1.10
6054;DHT22;3055;50.886;14.814;2022-12-18T00:31:43;-2.50;7.40
6054;DHT22;3055;50.886;14.814;2022-12-18T00:34:11;-2.50;12.90
6054;DHT22;3055;50.886;14.814;2022-12-18T00:36:39;-2.60;25.80
6054;DHT22;3055;50.886;14.814;2022-12-18T00:39:07;-2.40;12.70
6054;DHT22;3055;50.886;14.814;2022-12-18T00:41:35;-2.50;5.30
6054;DHT22;3055;50.886;14.814;2022-12-18T00:44:20;-2.50;13.40
6054;DHT22;3055;50.886;14.814;2022-12-18T00:46:47;-2.50;19.10
6054;DHT22;3055;50.886;14.814;2022-12-18T00:49:15;-2.60;28.00
6054;DHT22;3055;50.886;14.814;2022-12-18T00:51:43;-2.60;30.00
6054;DHT22;3055;50.886;14.814;2022-12-18T00:54:10;-2.40;26.00
6054;DHT22;3055;50.886;14.814;2022-12-18T00:56:39;-2.40;3.60
6054;DHT22;3055;50.886;14.814;2022-12-18T00:59:06;-2.50;1.00
6054;DHT22;3055;50.886;14.814;2022-12-18T01:01:34;-2.60;12.30
6054;DHT22;3055;50.886;14.814;2022-12-18T01:04:02;-2.70;30.50
6054;DHT22;3055;50.886;14.814;2022-12-18T01:06:29;-2.50;12.80
6054;DHT22;3055;50.886;14.814;2022-12-18T01:08:56;-2.50;3.90
6054;DHT22;3055;50.886;14.814;2022-12-18T01:11:23;-2.40;2.30
6054;DHT22;3055;50.886;14.814;2022-12-18T01:13:53;-2.40;1.00
6054;DHT22;3055;50.886;14.814;2022-12-18T01:16:21;-2.50;1.00
6054;DHT22;3055;50.886;14.814;2022-12-18T01:18:51;-2.50;7.10
6054;DHT22;3055;50.886;14.814;2022-12-18T01:21:18;-2.50;5.50
6054;DHT22;3055;50.886;14.814;2022-12-18T01:23:46;-2.50;16.10
6054;DHT22;3055;50.886;14.814;2022-12-18T01:26:14;-2.60;20.30
6054;DHT22;3055;50.886;14.814;2022-12-18T01:28:43;-2.60;16.40
6054;DHT22;3055;50.886;14.814;2022-12-18T01:31:17;-2.70;17.70
6054;DHT22;3055;50.886;14.814;2022-12-18T01:33:45;-2.70;21.00
6054;DHT22;3055;50.886;14.814;2022-12-18T01:36:16;-2.70;32.80
6054;DHT22;3055;50.886;14.814;2022-12-18T01:38:43;-2.70;34.20
6054;DHT22;3055;50.886;14.814;2022-12-18T01:41:11;-2.70;38.50
6054;DHT22;3055;50.886;14.814;2022-12-18T01:43:42;-2.70;43.80
6054;DHT22;3055;50.886;14.814;2022-12-18T01:46:10;-2.70;37.70
6054;DHT22;3055;50.886;14.814;2022-12-18T01:48:39;-2.70;48.40
6054;DHT22;3055;50.886;14.814;2022-12-18T01:51:08;-2.70;42.60
6054;DHT22;3055;50.886;14.814;2022-12-18T01:53:37;-2.70;42.20
6054;DHT22;3055;50.886;14.814;2022-12-18T01:56:06;-2.60;19.00
6054;DHT22;3055;50.886;14.814;2022-12-18T01:58:39;-2.60;20.20
6054;DHT22;3055;50.886;14.814;2022-12-18T02:01:09;-2.70;16.40
6054;DHT22;3055;50.886;14.814;2022-12-18T02:03:39;-2.60;20.40
6054;DHT22;3055;50.886;14.814;2022-12-18T02:06:12;-2.70;26.30
6054;DHT22;3055;50.886;14.814;2022-12-18T02:08:46;-2.70;34.80
6054;DHT22;3055;50.886;14.814;2022-12-18T02:11:19;-2.70;44.50
6054;DHT22;3055;50.886;14.814;2022-12-18T02:13:56;-2.70;53.60
6054;DHT22;3055;50.886;14.814;2022-12-18T02:16:30;-2.70;51.20
6054;DHT22;3055;50.886;14.814;2022-12-18T02:19:08;-2.70;51.10
6054;DHT22;3055;50.886;14.814;2022-12-18T02:21:48;-2.60;24.30
6054;DHT22;3055;50.886;14.814;2022-12-18T02:24:28;-2.70;17.50
6054;DHT22;3055;50.886;14.814;2022-12-18T02:27:01;-2.70;16.90
6054;DHT22;3055;50.886;14.814;2022-12-18T02:29:32;-2.70;11.40
6054;DHT22;3055;50.886;14.814;2022-12-18T02:32:03;-2.80;16.30
6054;DHT22;3055;50.886;14.814;2022-12-18T02:34:36;-2.80;25.00
6054;DHT22;3055;50.886;14.814;2022-12-18T02:37:06;-2.80;32.50
6054;DHT22;3055;50.886;14.814;2022-12-18T02:39:37;-2.70;23.80
6054;DHT22;3055;50.886;14.814;2022-12-18T02:42:07;-2.70;17.90
6054;DHT22;3055;50.886;14.814;2022-12-18T02:44:34;-2.70;10.80
6054;DHT22;3055;50.886;14.814;2022-12-18T02:47:02;-2.70;10.20
6054;DHT22;3055;50.886;14.814;2022-12-18T02:49:36;-2.80;1.00
6054;DHT22;3055;50.886;14.814;2022-12-18T02:52:15;-2.80;1.00
6054;DHT22;3055;50.886;14.814;2022-12-18T02:54:52;-2.80;3.20
6054;DHT22;3055;50.886;14.814;2022-12-18T02:57:32;-2.90;15.00
6054;DHT22;3055;50.886;14.814;2022-12-18T03:00:04;-2.90;14.40
6054;DHT22;3055;50.886;14.814;2022-12-18T03:02:37;-2.90;14.30
6054;DHT22;3055;50.886;14.814;2022-12-18T03:05:11;-2.90;12.90
6054;DHT22;3055;50.886;14.814;2022-12-18T03:07:42;-2.90;12.40
6054;DHT22;3055;50.886;14.814;2022-12-18T03:10:13;-3.00;9.20
6054;DHT22;3055;50.886;14.814;2022-12-18T03:12:46;-3.00;12.10
6054;DHT22;3055;50.886;14.814;2022-12-18T03:15:18;-2.90;6.50
6054;DHT22;3055;50.886;14.814;2022-12-18T03:17:54;-3.10;1.00
6054;DHT22;3055;50.886;14.814;2022-12-18T03:20:24;-3.20;1.00
6054;DHT22;3055;50.886;14.814;2022-12-18T03:22:57;-3.20;10.50
6054;DHT22;3055;50.886;14.814;2022-12-18T03:25:27;-3.20;22.50
6054;DHT22;3055;50.886;14.814;2022-12-18T03:27:58;-3.20;21.00
6054;DHT22;3055;50.886;14.814;2022-12-18T03:30:28;-3.10;24.00
6054;DHT22;3055;50.886;14.814;2022-12-18T03:33:00;-3.10;25.00
6054;DHT22;3055;50.886;14.814;2022-12-18T03:35:30;-3.10;19.30
6054;DHT22;3055;50.886;14.814;2022-12-18T03:37:58;-3.10;21.10
6054;DHT22;3055;50.886;14.814;2022-12-18T03:40:31;-3.10;23.70
6054;DHT22;3055;50.886;14.814;2022-12-18T03:43:09;-3.10;22.30
6054;DHT22;3055;50.886;14.814;2022-12-18T03:45:44;-3.10;21.30
6054;DHT22;3055;50.886;14.814;2022-12-18T03:48:18;-3.20;1.00
6054;DHT22;3055;50.886;14.814;2022-12-18T03:50:52;-3.20;1.00
6054;DHT22;3055;50.886;14.814;2022-12-18T03:53:25;-3.30;1.00
6054;DHT22;3055;50.886;14.814;2022-12-18T03:55:56;-3.40;1.50
6054;DHT22;3055;50.886;14.814;2022-12-18T03:58:27;-3.50;4.70
6054;DHT22;3055;50.886;14.814;2022-12-18T04:00:57;-3.40;14.20
6054;DHT22;3055;50.886;14.814;2022-12-18T04:03:28;-3.40;12.20
6054;DHT22;3055;50.886;14.814;2022-12-18T04:05:57;-3.50;9.80
6054;DHT22;3055;50.886;14.814;2022-12-18T04:08:26;-3.50;21.60
6054;DHT22;3055;50.886;14.814;2022-12-18T04:10:53;-3.60;16.30
6054;DHT22;3055;50.886;14.814;2022-12-18T04:13:23;-3.60;22.10
6054;DHT22;3055;50.886;14.814;2022-12-18T04:15:52;-3.50;24.00
6054;DHT22;3055;50.886;14.814;2022-12-18T04:18:19;-3.50;23.70
6054;DHT22;3055;50.886;14.814;2022-12-18T04:20:46;-3.50;28.30
6054;DHT22;3055;50.886;14.814;2022-12-18T04:23:14;-3.60;28.30
6054;DHT22;3055;50.886;14.814;2022-12-18T04:25:41;-3.60;33.00
6054;DHT22;3055;50.886;14.814;2022-12-18T04:28:08;-3.60;32.70
6054;DHT22;3055;50.886;14.814;2022-12-18T04:30:35;-3.60;42.10
6054;DHT22;3055;50.886;14.814;2022-12-18T04:33:03;-3.60;44.30
6054;DHT22;3055;50.886;14.814;2022-12-18T04:35:31;-3.70;51.40
6054;DHT22;3055;50.886;14.814;2022-12-18T04:37:58;-3.60;65.40
6054;DHT22;3055;50.886;14.814;2022-12-18T04:40:26;-3.60;84.20
6054;DHT22;3055;50.886;14.814;2022-12-18T04:42:53;-3.50;76.80
6054;DHT22;3055;50.886;14.814;2022-12-18T04:45:20;-3.50;73.50
6054;DHT22;3055;50.886;14.814;2022-12-18T04:47:47;-3.40;53.80
6054;DHT22;3055;50.886;14.814;2022-12-18T04:50:15;-3.40;51.00
6054;DHT22;3055;50.886;14.814;2022-12-18T04:52:42;-3.50;47.10
6054;DHT22;3055;50.886;14.814;2022-12-18T04:55:09;-3.50;49.60
6054;DHT22;3055;50.886;14.814;2022-12-18T04:57:36;-3.50;47.40
6054;DHT22;3055;50.886;14.814;2022-12-18T05:00:04;-3.50;45.50
6054;DHT22;3055;50.886;14.814;2022-12-18T05:02:32;-3.60;58.70
6054;DHT22;3055;50.886;14.814;2022-12-18T05:04:59;-3.50;50.40
6054;DHT22;3055;50.886;14.814;2022-12-18T05:07:28;-3.50;47.60
6054;DHT22;3055;50.886;14.814;2022-12-18T05:09:55;-3.50;40.00
6054;DHT22;3055;50.886;14.814;2022-12-18T05:12:24;-3.50;37.40
6054;DHT22;3055;50.886;14.814;2022-12-18T05:14:51;-3.60;34.30
6054;DHT22;3055;50.886;14.814;2022-12-18T05:17:19;-3.60;40.50
6054;DHT22;3055;50.886;14.814;2022-12-18T05:19:46;-3.70;47.60
6054;DHT22;3055;50.886;14.814;2022-12-18T05:22:13;-3.60;52.20
6054;DHT22;3055;50.886;14.814;2022-12-18T05:24:41;-3.60;52.80
6054;DHT22;3055;50.886;14.814;2022-12-18T05:27:08;-3.60;55.80
6054;DHT22;3055;50.886;14.814;2022-12-18T05:29:35;-3.60;58.80
6054;DHT22;3055;50.886;14.814;2022-12-18T05:32:03;-3.60;59.00
6054;DHT22;3055;50.886;14.814;2022-12-18T05:34:30;-3.70;59.90
6054;DHT22;3055;50.886;14.814;2022-12-18T05:36:59;-3.70;64.50
6054;DHT22;3055;50.886;14.814;2022-12-18T05:39:26;-3.70;63.70
6054;DHT22;3055;50.886;14.814;2022-12-18T05:41:54;-3.60;65.20
6054;DHT22;3055;50.886;14.814;2022-12-18T05:44:21;-3.70;63.30
6054;DHT22;3055;50.886;14.814;2022-12-18T05:46:48;-3.70;65.00
6054;DHT22;3055;50.886;14.814;2022-12-18T05:49:15;-3.70;77.00
6054;DHT22;3055;50.886;14.814;2022-12-18T05:51:42;-3.70;84.10
6054;DHT22;3055;50.886;14.814;2022-12-18T05:54:09;-3.70;85.30
6054;DHT22;3055;50.886;14.814;2022-12-18T05:56:37;-3.70;82.90
6054;DHT22;3055;50.886;14.814;2022-12-18T05:59:05;-3.70;85.30
6054;DHT22;3055;50.886;14.814;2022-12-18T06:01:32;-3.70;91.30
6054;DHT22;3055;50.886;14.814;2022-12-18T06:03:59;-3.70;82.40
6054;DHT22;3055;50.886;14.814;2022-12-18T06:06:27;-3.70;82.10
6054;DHT22;3055;50.886;14.814;2022-12-18T06:08:55;-3.70;81.90
6054;DHT22;3055;50.886;14.814;2022-12-18T06:11:24;-3.70;85.50
6054;DHT22;3055;50.886;14.814;2022-12-18T06:13:52;-3.70;75.50
6054;DHT22;3055;50.886;14.814;2022-12-18T06:16:20;-3.70;85.70
6054;DHT22;3055;50.886;14.814;2022-12-18T06:18:47;-3.70;86.60
6054;DHT22;3055;50.886;14.814;2022-12-18T06:21:14;-3.70;87.20
6054;DHT22;3055;50.886;14.814;2022-12-18T06:23:42;-3.70;80.10
6054;DHT22;3055;50.886;14.814;2022-12-18T06:26:10;-3.70;84.30
6054;DHT22;3055;50.886;14.814;2022-12-18T06:28:38;-3.80;85.60
6054;DHT22;3055;50.886;14.814;2022-12-18T06:31:05;-3.80;82.70
6054;DHT22;3055;50.886;14.814;2022-12-18T06:33:35;-3.80;88.60
6054;DHT22;3055;50.886;14.814;2022-12-18T06:36:03;-3.80;85.60
6054;DHT22;3055;50.886;14.814;2022-12-18T06:38:31;-3.80;82.90
6054;DHT22;3055;50.886;14.814;2022-12-18T06:40:58;-3.90;87.70
6054;DHT22;3055;50.886;14.814;2022-12-18T06:43:25;-3.90;90.30
6054;DHT22;3055;50.886;14.814;2022-12-18T06:46:00;-3.90;94.10
6054;DHT22;3055;50.886;14.814;2022-12-18T06:48:27;-3.90;98.50
6054;DHT22;3055;50.886;14.814;2022-12-18T06:50:56;-4.00;99.20
6054;DHT22;3055;50.886;14.814;2022-12-18T06:53:23;-4.00;99.90
6054;DHT22;3055;50.886;14.814;2022-12-18T06:55:50;-4.00;99.90
6054;DHT22;3055;50.886;14.814;2022-12-18T06:58:17;-4.00;99.90
6054;DHT22;3055;50.886;14.814;2022-12-18T07:00:44;-4.00;99.90
6054;DHT22;3055;50.886;14.814;2022-12-18T07:03:12;-4.10;99.90
6054;DHT22;3055;50.886;14.814;2022-12-18T07:05:40;-4.00;99.90
6054;DHT22;3055;50.886;14.814;2022-12-18T07:08:08;-4.10;99.90
6054;DHT22;3055;50.886;14.814;2022-12-18T07:10:41;-4.10;99.90
6054;DHT22;3055;50.886;14.814;2022-12-18T07:13:08;-4.00;99.90
6054;DHT22;3055;50.886;14.814;2022-12-18T07:15:35;-4.10;99.90
6054;DHT22;3055;50.886;14.814;2022-12-18T07:18:02;-4.00;99.90
6054;DHT22;3055;50.886;14.814;2022-12-18T07:20:29;-4.00;99.90
6054;DHT22;3055;50.886;14.814;2022-12-18T07:22:56;-4.10;99.90
6054;DHT22;3055;50.886;14.814;2022-12-18T07:25:25;-4.00;99.90
6054;DHT22;3055;50.886;14.814;2022-12-18T07:27:52;-3.90;99.90
6054;DHT22;3055;50.886;14.814;2022-12-18T07:30:19;-3.90;99.90
6054;DHT22;3055;50.886;14.814;2022-12-18T07:32:46;-3.90;98.60
6054;DHT22;3055;50.886;14.814;2022-12-18T07:35:13;-3.90;95.90
6054;DHT22;3055;50.886;14.814;2022-12-18T07:37:40;-3.90;94.10
6054;DHT22;3055;50.886;14.814;2022-12-18T07:40:09;-3.80;95.00
6054;DHT22;3055;50.886;14.814;2022-12-18T07:42:37;-3.80;90.10
6054;DHT22;3055;50.886;14.814;2022-12-18T07:45:05;-3.70;84.50
6054;DHT22;3055;50.886;14.814;2022-12-18T07:47:34;-3.60;74.50
6054;DHT22;3055;50.886;14.814;2022-12-18T07:50:02;-3.60;77.50
6054;DHT22;3055;50.886;14.814;2022-12-18T07:52:29;-3.60;69.70
6054;DHT22;3055;50.886;14.814;2022-12-18T07:54:56;-3.50;54.80
6054;DHT22;3055;50.886;14.814;2022-12-18T07:57:23;-3.60;39.40
6054;DHT22;3055;50.886;14.814;2022-12-18T07:59:52;-3.60;42.60
6054;DHT22;3055;50.886;14.814;2022-12-18T08:02:19;-3.60;37.70
6054;DHT22;3055;50.886;14.814;2022-12-18T08:04:46;-3.60;33.80
6054;DHT22;3055;50.886;14.814;2022-12-18T08:07:13;-3.60;33.10
6054;DHT22;3055;50.886;14.814;2022-12-18T08:09:40;-3.70;26.90
6054;DHT22;3055;50.886;14.814;2022-12-18T08:12:07;-3.70;43.10
6054;DHT22;3055;50.886;14.814;2022-12-18T08:14:34;-3.60;43.70
6054;DHT22;3055;50.886;14.814;2022-12-18T08:17:02;-3.70;46.70
6054;DHT22;3055;50.886;14.814;2022-12-18T08:19:30;-3.60;55.50
6054;DHT22;3055;50.886;14.814;2022-12-18T08:21:57;-3.50;38.40
6054;DHT22;3055;50.886;14.814;2022-12-18T08:24:24;-3.50;45.70
6054;DHT22;3055;50.886;14.814;2022-12-18T08:26:51;-3.40;39.90
6054;DHT22;3055;50.886;14.814;2022-12-18T08:29:18;-3.30;19.60
6054;DHT22;3055;50.886;14.814;2022-12-18T08:31:45;-3.30;11.60
6054;DHT22;3055;50.886;14.814;2022-12-18T08:34:13;-3.30;11.80
6054;DHT22;3055;50.886;14.814;2022-12-18T08:36:41;-3.30;17.00
6054;DHT22;3055;50.886;14.814;2022-12-18T08:39:10;-3.20;11.50
6054;DHT22;3055;50.886;14.814;2022-12-18T08:41:37;-3.30;1.00
6054;DHT22;3055;50.886;14.814;2022-12-18T08:44:04;-3.30;1.00
6054;DHT22;3055;50.886;14.814;2022-12-18T08:46:49;-3.30;1.00
6054;DHT22;3055;50.886;14.814;2022-12-18T08:49:18;-3.30;1.00
6054;DHT22;3055;50.886;14.814;2022-12-18T08:51:45;-3.20;1.00
6054;DHT22;3055;50.886;14.814;2022-12-18T08:54:12;-3.10;1.00
6054;DHT22;3055;50.886;14.814;2022-12-18T08:56:40;-3.10;1.00
6054;DHT22;3055;50.886;14.814;2022-12-18T08:59:08;-3.00;1.00
6054;DHT22;3055;50.886;14.814;2022-12-18T09:01:35;-3.00;1.00
6054;DHT22;3055;50.886;14.814;2022-12-18T09:04:03;-3.00;1.00
6054;DHT22;3055;50.886;14.814;2022-12-18T09:06:31;-2.90;1.00
6054;DHT22;3055;50.886;14.814;2022-12-18T09:08:58;-3.00;1.00
6054;DHT22;3055;50.886;14.814;2022-12-18T09:11:27;-2.90;1.00
6054;DHT22;3055;50.886;14.814;2022-12-18T09:13:55;-2.90;1.00
6054;DHT22;3055;50.886;14.814;2022-12-18T09:16:24;-2.90;1.00
6054;DHT22;3055;50.886;14.814;2022-12-18T09:18:51;-2.90;1.00
6054;DHT22;3055;50.886;14.814;2022-12-18T09:21:25;-2.90;1.00
6054;DHT22;3055;50.886;14.814;2022-12-18T09:23:55;-2.80;1.00
6054;DHT22;3055;50.886;14.814;2022-12-18T09:26:23;-2.70;1.00
6054;DHT22;3055;50.886;14.814;2022-12-18T09:28:51;-2.60;1.00
6054;DHT22;3055;50.886;14.814;2022-12-18T09:31:19;-2.50;1.00
6054;DHT22;3055;50.886;14.814;2022-12-18T09:33:47;-2.40;1.00
6054;DHT22;3055;50.886;14.814;2022-12-18T09:36:15;-2.30;1.00
6054;DHT22;3055;50.886;14.814;2022-12-18T09:38:43;-2.30;1.00
6054;DHT22;3055;50.886;14.814;2022-12-18T09:41:26;-2.40;1.00
6054;DHT22;3055;50.886;14.814;2022-12-18T09:43:58;-2.40;1.00
6054;DHT22;3055;50.886;14.814;2022-12-18T09:46:30;-2.50;1.00
6054;DHT22;3055;50.886;14.814;2022-12-18T09:49:01;-2.60;1.00
6054;DHT22;3055;50.886;14.814;2022-12-18T09:51:33;-2.60;1.00
6054;DHT22;3055;50.886;14.814;2022-12-18T09:54:05;-2.60;1.00
6054;DHT22;3055;50.886;14.814;2022-12-18T09:56:40;-2.50;1.00
6054;DHT22;3055;50.886;14.814;2022-12-18T09:59:18;-2.60;1.00
6054;DHT22;3055;50.886;14.814;2022-12-18T10:01:46;-2.70;1.00
6054;DHT22;3055;50.886;14.814;2022-12-18T10:04:14;-2.60;1.00
6054;DHT22;3055;50.886;14.814;2022-12-18T10:06:48;-2.60;1.00
6054;DHT22;3055;50.886;14.814;2022-12-18T10:09:24;-2.40;1.00
6054;DHT22;3055;50.886;14.814;2022-12-18T10:11:59;-2.40;1.00
6054;DHT22;3055;50.886;14.814;2022-12-18T10:14:34;-2.50;1.00
6054;DHT22;3055;50.886;14.814;2022-12-18T10:17:09;-2.50;1.00
6054;DHT22;3055;50.886;14.814;2022-12-18T10:19:43;-2.50;1.00
6054;DHT22;3055;50.886;14.814;2022-12-18T10:22:22;-2.50;1.00
6054;DHT22;3055;50.886;14.814;2022-12-18T10:24:56;-2.40;1.00
6054;DHT22;3055;50.886;14.814;2022-12-18T10:27:28;-2.30;1.00
6054;DHT22;3055;50.886;14.814;2022-12-18T10:29:57;-2.20;1.00
6054;DHT22;3055;50.886;14.814;2022-12-18T10:32:26;-2.30;1.00
6054;DHT22;3055;50.886;14.814;2022-12-18T10:34:56;-2.30;1.00
6054;DHT22;3055;50.886;14.814;2022-12-18T10:37:26;-2.30;1.00
6054;DHT22;3055;50.886;14.814;2022-12-18T10:40:09;-2.20;1.00
6054;DHT22;3055;50.886;14.814;2022-12-18T10:42:38;-2.20;1.00
6054;DHT22;3055;50.886;14.814;2022-12-18T10:45:11;-2.20;1.00
6054;DHT22;3055;50.886;14.814;2022-12-18T10:47:42;-2.20;1.00
6054;DHT22;3055;50.886;14.814;2022-12-18T10:50:19;-2.20;1.00
6054;DHT22;3055;50.886;14.814;2022-12-18T10:52:55;-2.20;1.00
6054;DHT22;3055;50.886;14.814;2022-12-18T10:55:22;-2.30;1.00
6054;DHT22;3055;50.886;14.814;2022-12-18T10:57:52;-2.30;1.00
6054;DHT22;3055;50.886;14.814;2022-12-18T11:00:25;-2.10;1.00
6054;DHT22;3055;50.886;14.814;2022-12-18T11:02:53;-2.10;1.00
6054;DHT22;3055;50.886;14.814;2022-12-18T11:05:29;-2.10;1.00
6054;DHT22;3055;50.886;14.814;2022-12-18T11:07:57;-2.30;1.00
6054;DHT22;3055;50.886;14.814;2022-12-18T11:10:29;-2.40;1.00
6054;DHT22;3055;50.886;14.814;2022-12-18T11:13:09;-2.40;1.00
6054;DHT22;3055;50.886;14.814;2022-12-18T11:15:40;-2.40;1.00
6054;DHT22;3055;50.886;14.814;2022-12-18T11:18:16;-2.40;1.00
6054;DHT22;3055;50.886;14.814;2022-12-18T11:20:51;-2.40;1.00
6054;DHT22;3055;50.886;14.814;2022-12-18T11:23:19;-2.40;1.00
6054;DHT22;3055;50.886;14.814;2022-12-18T11:25:53;-2.40;1.00
6054;DHT22;3055;50.886;14.814;2022-12-18T11:28:47;-2.40;1.00
6054;DHT22;3055;50.886;14.814;2022-12-18T11:31:25;-2.40;1.00
6054;DHT22;3055;50.886;14.814;2022-12-18T11:33:58;-2.30;1.00
6054;DHT22;3055;50.886;14.814;2022-12-18T11:36:30;-2.20;1.00
6054;DHT22;3055;50.886;14.814;2022-12-18T11:39:03;-2.10;1.00
6054;DHT22;3055;50.886;14.814;2022-12-18T11:41:37;-2.20;1.00
6054;DHT22;3055;50.886;14.814;2022-12-18T11:44:28;-2.20;1.00
6054;DHT22;3055;50.886;14.814;2022-12-18T11:47:00;-2.40;1.00
6054;DHT22;3055;50.886;14.814;2022-12-18T11:49:32;-2.50;1.00
6054;DHT22;3055;50.886;14.814;2022-12-18T11:52:04;-2.50;1.00
6054;DHT22;3055;50.886;14.814;2022-12-18T11:54:36;-2.40;1.00
6054;DHT22;3055;50.886;14.814;2022-12-18T11:57:09;-2.40;1.00
6054;DHT22;3055;50.886;14.814;2022-12-18T11:59:50;-2.40;1.00
6054;DHT22;3055;50.886;14.814;2022-12-18T12:02:36;-2.50;1.00
6054;DHT22;3055;50.886;14.814;2022-12-18T12:05:20;-2.40;1.00
6054;DHT22;3055;50.886;14.814;2022-12-18T12:07:56;-2.40;1.00
6054;DHT22;3055;50.886;14.814;2022-12-18T12:10:35;-2.20;1.00
6054;DHT22;3055;50.886;14.814;2022-12-18T12:13:15;-2.10;1.00
6054;DHT22;3055;50.886;14.814;2022-12-18T12:15:57;-2.10;1.00
6054;DHT22;3055;50.886;14.814;2022-12-18T12:18:36;-2.20;1.00
6054;DHT22;3055;50.886;14.814;2022-12-18T12:21:09;-2.20;1.00
6054;DHT22;3055;50.886;14.814;2022-12-18T12:23:46;-2.20;1.00
6054;DHT22;3055;50.886;14.814;2022-12-18T12:26:20;-2.30;1.00
6054;DHT22;3055;50.886;14.814;2022-12-18T12:29:08;-2.30;1.00
6054;DHT22;3055;50.886;14.814;2022-12-18T12:31:52;-2.30;1.00
6054;DHT22;3055;50.886;14.814;2022-12-18T12:34:26;-2.20;1.00
6054;DHT22;3055;50.886;14.814;2022-12-18T12:37:03;-2.20;1.00
6054;DHT22;3055;50.886;14.814;2022-12-18T12:39:37;-2.30;1.00
6054;DHT22;3055;50.886;14.814;2022-12-18T12:42:06;-2.20;1.00
6054;DHT22;3055;50.886;14.814;2022-12-18T12:44:56;-2.20;1.00
6054;DHT22;3055;50.886;14.814;2022-12-18T12:47:31;-2.30;1.00
6054;DHT22;3055;50.886;14.814;2022-12-18T12:50:01;-2.30;1.00
6054;DHT22;3055;50.886;14.814;2022-12-18T12:52:33;-2.30;1.00
6054;DHT22;3055;50.886;14.814;2022-12-18T12:55:02;-2.30;1.00
6054;DHT22;3055;50.886;14.814;2022-12-18T12:57:34;-2.40;1.00
6054;DHT22;3055;50.886;14.814;2022-12-18T13:00:07;-2.30;1.00
6054;DHT22;3055;50.886;14.814;2022-12-18T13:02:42;-2.20;1.00
6054;DHT22;3055;50.886;14.814;2022-12-18T13:05:17;-2.20;1.00
6054;DHT22;3055;50.886;14.814;2022-12-18T13:07:50;-2.00;1.00
6054;DHT22;3055;50.886;14.814;2022-12-18T13:10:31;-2.00;1.00
6054;DHT22;3055;50.886;14.814;2022-12-18T13:13:00;-2.00;1.00
6054;DHT22;3055;50.886;14.814;2022-12-18T13:15:33;-2.00;1.00
6054;DHT22;3055;50.886;14.814;2022-12-18T13:18:14;-1.90;1.00
6054;DHT22;3055;50.886;14.814;2022-12-18T13:20:44;-1.90;1.00
6054;DHT22;3055;50.886;14.814;2022-12-18T13:23:35;-1.90;1.00
6054;DHT22;3055;50.886;14.814;2022-12-18T13:26:28;-2.00;1.00
6054;DHT22;3055;50.886;14.814;2022-12-18T13:28:56;-2.10;1.00
6054;DHT22;3055;50.886;14.814;2022-12-18T13:34:35;-2.30;1.00
6054;DHT22;3055;50.886;14.814;2022-12-18T13:37:42;-2.40;1.00
6054;DHT22;3055;50.886;14.814;2022-12-18T13:43:29;-2.60;1.00
6054;DHT22;3055;50.886;14.814;2022-12-18T13:46:21;-2.50;1.00
6054;DHT22;3055;50.886;14.814;2022-12-18T13:48:52;-2.50;1.00
6054;DHT22;3055;50.886;14.814;2022-12-18T13:51:23;-2.50;1.00
6054;DHT22;3055;50.886;14.814;2022-12-18T13:53:52;-2.50;1.00
6054;DHT22;3055;50.886;14.814;2022-12-18T13:56:23;-2.40;1.00
6054;DHT22;3055;50.886;14.814;2022-12-18T13:59:15;-2.50;1.00
6054;DHT22;3055;50.886;14.814;2022-12-18T14:01:44;-2.50;1.00
6054;DHT22;3055;50.886;14.814;2022-12-18T14:04:12;-2.60;1.00
6054;DHT22;3055;50.886;14.814;2022-12-18T14:06:45;-2.70;1.00
6054;DHT22;3055;50.886;14.814;2022-12-18T14:09:15;-2.80;1.00
6054;DHT22;3055;50.886;14.814;2022-12-18T14:11:47;-2.80;1.00
6054;DHT22;3055;50.886;14.814;2022-12-18T14:14:15;-2.90;1.00
6054;DHT22;3055;50.886;14.814;2022-12-18T14:16:43;-3.00;1.00
6054;DHT22;3055;50.886;14.814;2022-12-18T14:19:13;-3.00;1.00
6054;DHT22;3055;50.886;14.814;2022-12-18T14:21:47;-3.00;1.00
6054;DHT22;3055;50.886;14.814;2022-12-18T14:24:17;-3.00;1.00
6054;DHT22;3055;50.886;14.814;2022-12-18T14:26:45;-3.10;1.00
6054;DHT22;3055;50.886;14.814;2022-12-18T14:29:21;-3.20;1.00
6054;DHT22;3055;50.886;14.814;2022-12-18T14:32:05;-3.20;1.00
6054;DHT22;3055;50.886;14.814;2022-12-18T14:34:32;-3.20;1.00
6054;DHT22;3055;50.886;14.814;2022-12-18T14:37:01;-3.30;1.00
6054;DHT22;3055;50.886;14.814;2022-12-18T14:39:28;-3.30;1.00
6054;DHT22;3055;50.886;14.814;2022-12-18T14:41:55;-3.30;1.00
6054;DHT22;3055;50.886;14.814;2022-12-18T14:44:22;-3.30;1.00
6054;DHT22;3055;50.886;14.814;2022-12-18T14:46:50;-3.40;1.00
6054;DHT22;3055;50.886;14.814;2022-12-18T14:49:21;-3.40;1.00
6054;DHT22;3055;50.886;14.814;2022-12-18T14:51:51;-3.50;1.00
6054;DHT22;3055;50.886;14.814;2022-12-18T14:54:22;-3.50;1.50
6054;DHT22;3055;50.886;14.814;2022-12-18T14:56:51;-3.50;1.00
6054;DHT22;3055;50.886;14.814;2022-12-18T14:59:23;-3.60;1.00
6054;DHT22;3055;50.886;14.814;2022-12-18T15:01:59;-3.60;4.90
6054;DHT22;3055;50.886;14.814;2022-12-18T15:04:28;-3.70;10.00
6054;DHT22;3055;50.886;14.814;2022-12-18T15:07:09;-3.70;17.40
6054;DHT22;3055;50.886;14.814;2022-12-18T15:09:41;-3.80;20.70
6054;DHT22;3055;50.886;14.814;2022-12-18T15:12:22;-3.80;27.80
6054;DHT22;3055;50.886;14.814;2022-12-18T15:14:51;-3.80;26.80
6054;DHT22;3055;50.886;14.814;2022-12-18T15:17:19;-3.90;31.10
6054;DHT22;3055;50.886;14.814;2022-12-18T15:19:48;-3.90;38.20
6054;DHT22;3055;50.886;14.814;2022-12-18T15:22:22;-3.90;37.60
6054;DHT22;3055;50.886;14.814;2022-12-18T15:24:52;-3.90;41.30
6054;DHT22;3055;50.886;14.814;2022-12-18T15:27:25;-3.90;40.00
6054;DHT22;3055;50.886;14.814;2022-12-18T15:30:26;-3.90;43.20
6054;DHT22;3055;50.886;14.814;2022-12-18T15:33:17;-3.90;40.60
6054;DHT22;3055;50.886;14.814;2022-12-18T15:35:56;-3.90;41.30
6054;DHT22;3055;50.886;14.814;2022-12-18T15:38:23;-4.00;41.30
6054;DHT22;3055;50.886;14.814;2022-12-18T15:40:52;-3.90;42.20
6054;DHT22;3055;50.886;14.814;2022-12-18T15:43:20;-4.00;42.50
6054;DHT22;3055;50.886;14.814;2022-12-18T15:46:04;-4.00;43.30
6054;DHT22;3055;50.886;14.814;2022-12-18T15:48:33;-4.00;44.50
6054;DHT22;3055;50.886;14.814;2022-12-18T15:51:01;-4.00;47.50
6054;DHT22;3055;50.886;14.814;2022-12-18T15:53:30;-4.00;50.40
6054;DHT22;3055;50.886;14.814;2022-12-18T15:56:00;-4.00;52.80
6054;DHT22;3055;50.886;14.814;2022-12-18T15:58:45;-4.00;55.70
6054;DHT22;3055;50.886;14.814;2022-12-18T16:01:12;-3.90;55.40
6054;DHT22;3055;50.886;14.814;2022-12-18T16:03:39;-4.00;55.60
6054;DHT22;3055;50.886;14.814;2022-12-18T16:06:07;-3.90;55.50
6054;DHT22;3055;50.886;14.814;2022-12-18T16:08:35;-3.90;53.10
6054;DHT22;3055;50.886;14.814;2022-12-18T16:11:04;-3.80;45.70
6054;DHT22;3055;50.886;14.814;2022-12-18T16:13:32;-3.90;41.50
6054;DHT22;3055;50.886;14.814;2022-12-18T16:15:59;-4.00;44.50
6054;DHT22;3055;50.886;14.814;2022-12-18T16:18:34;-4.00;47.10
6054;DHT22;3055;50.886;14.814;2022-12-18T16:21:01;-4.10;51.90
6054;DHT22;3055;50.886;14.814;2022-12-18T16:23:28;-4.10;51.30